Terminal Aerodrome Forecast
Issued by NWS

Current Version | Previous Version | Text Only | Print | Product List | Glossary On
Versions: 1 2 3 4 5 6 7 8 9 10 11 12 13 14 15 16 17 18 19 20
759
FTUS43 KFGF 080147 AAA
TAFBJI
TAF AMD
KBJI 080147Z 0802/0824 28014G20KT 3SM -SN OVC015
     FM080300 30016KT 4SM -SN OVC015
     FM080500 31015KT P6SM OVC015
      TEMPO 0805/0806 1SM -SN OVC007
     FM081100 31015KT P6SM OVC020
     FM081600 31012KT P6SM OVC008=

USA.gov is the U.S. government's official web portal to all federal, state and local government web resources and services.